sensor_id;sensor_type;location;lat;lon;timestamp;P1;durP1;ratioP1;P2;durP2;ratioP2
64601;SDS011;68371;42.630;23.192;2023-03-07T00:01:07;7.15;;;3.72;;
64601;SDS011;68371;42.630;23.192;2023-03-07T00:03:33;17.27;;;3.85;;
64601;SDS011;68371;42.630;23.192;2023-03-07T00:06:04;10.88;;;3.65;;
64601;SDS011;68371;42.630;23.192;2023-03-07T00:08:33;19.90;;;5.03;;
64601;SDS011;68371;42.630;23.192;2023-03-07T00:11:03;10.77;;;3.97;;
64601;SDS011;68371;42.630;23.192;2023-03-07T00:13:35;7.03;;;4.07;;
64601;SDS011;68371;42.630;23.192;2023-03-07T00:18:34;5.20;;;2.33;;
64601;SDS011;68371;42.630;23.192;2023-03-07T00:21:04;3.65;;;2.08;;
64601;SDS011;68371;42.630;23.192;2023-03-07T00:23:33;8.05;;;3.78;;
64601;SDS011;68371;42.630;23.192;2023-03-07T00:26:04;4.78;;;2.38;;
64601;SDS011;68371;42.630;23.192;2023-03-07T00:28:34;10.32;;;4.25;;
64601;SDS011;68371;42.630;23.192;2023-03-07T00:31:02;6.60;;;3.08;;
64601;SDS011;68371;42.630;23.192;2023-03-07T00:33:32;7.82;;;3.83;;
64601;SDS011;68371;42.630;23.192;2023-03-07T00:35:59;7.05;;;3.00;;
64601;SDS011;68371;42.630;23.192;2023-03-07T00:38:28;5.55;;;2.75;;
64601;SDS011;68371;42.630;23.192;2023-03-07T00:40:56;6.22;;;3.50;;
64601;SDS011;68371;42.630;23.192;2023-03-07T00:43:26;9.35;;;3.10;;
64601;SDS011;68371;42.630;23.192;2023-03-07T00:45:53;6.60;;;3.03;;
64601;SDS011;68371;42.630;23.192;2023-03-07T00:48:21;6.53;;;2.65;;
64601;SDS011;68371;42.630;23.192;2023-03-07T00:50:50;10.35;;;4.70;;
64601;SDS011;68371;42.630;23.192;2023-03-07T00:53:17;7.15;;;3.78;;
64601;SDS011;68371;42.630;23.192;2023-03-07T00:55:51;7.03;;;3.03;;
64601;SDS011;68371;42.630;23.192;2023-03-07T00:58:22;7.75;;;2.85;;
64601;SDS011;68371;42.630;23.192;2023-03-07T01:00:49;6.60;;;4.30;;
64601;SDS011;68371;42.630;23.192;2023-03-07T01:03:16;4.78;;;2.90;;
64601;SDS011;68371;42.630;23.192;2023-03-07T01:05:44;7.03;;;4.13;;
64601;SDS011;68371;42.630;23.192;2023-03-07T01:08:12;6.88;;;3.38;;
64601;SDS011;68371;42.630;23.192;2023-03-07T01:10:40;9.23;;;4.35;;
64601;SDS011;68371;42.630;23.192;2023-03-07T01:13:07;5.53;;;2.30;;
64601;SDS011;68371;42.630;23.192;2023-03-07T01:15:36;4.03;;;2.25;;
64601;SDS011;68371;42.630;23.192;2023-03-07T01:18:03;6.75;;;3.70;;
64601;SDS011;68371;42.630;23.192;2023-03-07T01:20:32;5.20;;;2.85;;
64601;SDS011;68371;42.630;23.192;2023-03-07T01:22:59;8.00;;;3.38;;
64601;SDS011;68371;42.630;23.192;2023-03-07T01:25:27;5.72;;;2.95;;
64601;SDS011;68371;42.630;23.192;2023-03-07T01:27:54;7.22;;;2.90;;
64601;SDS011;68371;42.630;23.192;2023-03-07T01:30:21;5.18;;;2.90;;
64601;SDS011;68371;42.630;23.192;2023-03-07T01:32:53;5.82;;;2.65;;
64601;SDS011;68371;42.630;23.192;2023-03-07T01:35:20;6.28;;;2.80;;
64601;SDS011;68371;42.630;23.192;2023-03-07T01:37:46;9.30;;;3.63;;
64601;SDS011;68371;42.630;23.192;2023-03-07T01:40:13;4.47;;;2.10;;
64601;SDS011;68371;42.630;23.192;2023-03-07T01:42:42;5.93;;;2.53;;
64601;SDS011;68371;42.630;23.192;2023-03-07T01:48:09;6.50;;;2.88;;
64601;SDS011;68371;42.630;23.192;2023-03-07T01:50:36;6.60;;;3.40;;
64601;SDS011;68371;42.630;23.192;2023-03-07T01:53:02;3.30;;;1.77;;
64601;SDS011;68371;42.630;23.192;2023-03-07T01:55:29;3.55;;;1.60;;
64601;SDS011;68371;42.630;23.192;2023-03-07T01:58:02;4.30;;;1.73;;
64601;SDS011;68371;42.630;23.192;2023-03-07T02:00:33;6.55;;;2.85;;
64601;SDS011;68371;42.630;23.192;2023-03-07T02:03:03;4.05;;;2.15;;
64601;SDS011;68371;42.630;23.192;2023-03-07T02:05:35;5.95;;;2.60;;
64601;SDS011;68371;42.630;23.192;2023-03-07T02:08:05;5.07;;;3.00;;
64601;SDS011;68371;42.630;23.192;2023-03-07T02:10:35;6.40;;;3.30;;
64601;SDS011;68371;42.630;23.192;2023-03-07T02:13:04;5.30;;;2.53;;
64601;SDS011;68371;42.630;23.192;2023-03-07T02:15:32;3.15;;;1.90;;
64601;SDS011;68371;42.630;23.192;2023-03-07T02:17:59;3.42;;;1.85;;
64601;SDS011;68371;42.630;23.192;2023-03-07T02:20:29;4.78;;;2.28;;
64601;SDS011;68371;42.630;23.192;2023-03-07T02:23:04;3.45;;;1.75;;
64601;SDS011;68371;42.630;23.192;2023-03-07T02:25:39;6.03;;;3.22;;
64601;SDS011;68371;42.630;23.192;2023-03-07T02:28:13;4.88;;;2.53;;
64601;SDS011;68371;42.630;23.192;2023-03-07T02:33:20;2.92;;;1.70;;
64601;SDS011;68371;42.630;23.192;2023-03-07T02:35:49;5.05;;;1.65;;
64601;SDS011;68371;42.630;23.192;2023-03-07T02:38:20;5.60;;;3.08;;
64601;SDS011;68371;42.630;23.192;2023-03-07T02:40:47;3.60;;;1.73;;
64601;SDS011;68371;42.630;23.192;2023-03-07T02:43:17;5.43;;;2.00;;
64601;SDS011;68371;42.630;23.192;2023-03-07T02:45:46;4.95;;;2.58;;
64601;SDS011;68371;42.630;23.192;2023-03-07T02:48:13;5.93;;;3.15;;
64601;SDS011;68371;42.630;23.192;2023-03-07T02:50:41;6.65;;;1.88;;
64601;SDS011;68371;42.630;23.192;2023-03-07T02:53:08;6.13;;;3.20;;
64601;SDS011;68371;42.630;23.192;2023-03-07T02:55:34;5.10;;;2.78;;
64601;SDS011;68371;42.630;23.192;2023-03-07T02:58:01;6.63;;;3.28;;
64601;SDS011;68371;42.630;23.192;2023-03-07T03:00:29;5.50;;;2.47;;
64601;SDS011;68371;42.630;23.192;2023-03-07T03:02:56;5.88;;;3.00;;
64601;SDS011;68371;42.630;23.192;2023-03-07T03:05:23;3.78;;;1.75;;
64601;SDS011;68371;42.630;23.192;2023-03-07T03:07:49;7.75;;;3.35;;
64601;SDS011;68371;42.630;23.192;2023-03-07T03:10:17;3.85;;;1.92;;
64601;SDS011;68371;42.630;23.192;2023-03-07T03:12:44;6.00;;;3.03;;
64601;SDS011;68371;42.630;23.192;2023-03-07T03:15:12;5.65;;;2.38;;
64601;SDS011;68371;42.630;23.192;2023-03-07T03:17:40;22.33;;;2.28;;
64601;SDS011;68371;42.630;23.192;2023-03-07T03:20:08;6.15;;;2.55;;
64601;SDS011;68371;42.630;23.192;2023-03-07T03:22:37;3.63;;;1.50;;
64601;SDS011;68371;42.630;23.192;2023-03-07T03:25:04;4.53;;;2.35;;
64601;SDS011;68371;42.630;23.192;2023-03-07T03:27:34;6.32;;;2.00;;
64601;SDS011;68371;42.630;23.192;2023-03-07T03:30:01;4.30;;;1.73;;
64601;SDS011;68371;42.630;23.192;2023-03-07T03:32:30;3.25;;;1.60;;
64601;SDS011;68371;42.630;23.192;2023-03-07T03:34:58;5.78;;;2.13;;
64601;SDS011;68371;42.630;23.192;2023-03-07T03:37:25;6.35;;;2.35;;
64601;SDS011;68371;42.630;23.192;2023-03-07T03:39:52;3.60;;;1.95;;
64601;SDS011;68371;42.630;23.192;2023-03-07T03:42:19;5.20;;;2.28;;
64601;SDS011;68371;42.630;23.192;2023-03-07T03:44:46;7.82;;;3.08;;
64601;SDS011;68371;42.630;23.192;2023-03-07T03:47:16;3.78;;;1.88;;
64601;SDS011;68371;42.630;23.192;2023-03-07T03:49:45;3.75;;;2.13;;
64601;SDS011;68371;42.630;23.192;2023-03-07T03:52:13;4.18;;;2.42;;
64601;SDS011;68371;42.630;23.192;2023-03-07T03:54:39;5.93;;;3.00;;
64601;SDS011;68371;42.630;23.192;2023-03-07T03:57:06;2.38;;;1.20;;
64601;SDS011;68371;42.630;23.192;2023-03-07T03:59:33;5.63;;;2.63;;
64601;SDS011;68371;42.630;23.192;2023-03-07T04:01:59;6.30;;;2.50;;
64601;SDS011;68371;42.630;23.192;2023-03-07T04:04:26;8.68;;;2.70;;
64601;SDS011;68371;42.630;23.192;2023-03-07T04:06:53;3.63;;;1.73;;
64601;SDS011;68371;42.630;23.192;2023-03-07T04:09:24;3.65;;;1.95;;
64601;SDS011;68371;42.630;23.192;2023-03-07T04:11:50;6.60;;;2.13;;
64601;SDS011;68371;42.630;23.192;2023-03-07T04:14:17;5.43;;;2.25;;
64601;SDS011;68371;42.630;23.192;2023-03-07T04:16:44;6.03;;;2.92;;
64601;SDS011;68371;42.630;23.192;2023-03-07T04:19:12;2.55;;;1.77;;
64601;SDS011;68371;42.630;23.192;2023-03-07T04:21:38;5.63;;;2.22;;
64601;SDS011;68371;42.630;23.192;2023-03-07T04:24:05;3.85;;;2.17;;
64601;SDS011;68371;42.630;23.192;2023-03-07T04:26:34;6.10;;;2.50;;
64601;SDS011;68371;42.630;23.192;2023-03-07T04:29:01;8.38;;;3.10;;
64601;SDS011;68371;42.630;23.192;2023-03-07T04:31:29;8.23;;;3.30;;
64601;SDS011;68371;42.630;23.192;2023-03-07T04:33:56;4.70;;;2.53;;
64601;SDS011;68371;42.630;23.192;2023-03-07T04:36:23;6.90;;;3.03;;
64601;SDS011;68371;42.630;23.192;2023-03-07T04:38:50;3.60;;;1.85;;
64601;SDS011;68371;42.630;23.192;2023-03-07T04:41:19;6.70;;;3.05;;
64601;SDS011;68371;42.630;23.192;2023-03-07T04:43:52;8.35;;;4.20;;
64601;SDS011;68371;42.630;23.192;2023-03-07T04:46:19;2.28;;;1.48;;
64601;SDS011;68371;42.630;23.192;2023-03-07T04:48:47;3.83;;;1.90;;
64601;SDS011;68371;42.630;23.192;2023-03-07T04:51:14;5.45;;;2.50;;
64601;SDS011;68371;42.630;23.192;2023-03-07T04:53:41;6.82;;;2.88;;
64601;SDS011;68371;42.630;23.192;2023-03-07T04:56:08;6.50;;;2.50;;
64601;SDS011;68371;42.630;23.192;2023-03-07T04:58:35;7.05;;;2.40;;
64601;SDS011;68371;42.630;23.192;2023-03-07T05:01:04;5.13;;;1.83;;
64601;SDS011;68371;42.630;23.192;2023-03-07T05:03:31;5.22;;;2.67;;
64601;SDS011;68371;42.630;23.192;2023-03-07T05:06:00;5.78;;;2.45;;
64601;SDS011;68371;42.630;23.192;2023-03-07T05:08:27;7.55;;;2.95;;
64601;SDS011;68371;42.630;23.192;2023-03-07T05:10:54;1.85;;;1.08;;
64601;SDS011;68371;42.630;23.192;2023-03-07T05:13:20;3.65;;;1.75;;
64601;SDS011;68371;42.630;23.192;2023-03-07T05:15:49;3.17;;;1.95;;
64601;SDS011;68371;42.630;23.192;2023-03-07T05:18:17;5.13;;;2.28;;
64601;SDS011;68371;42.630;23.192;2023-03-07T05:20:44;5.55;;;2.05;;
64601;SDS011;68371;42.630;23.192;2023-03-07T05:23:11;6.43;;;3.05;;
64601;SDS011;68371;42.630;23.192;2023-03-07T05:25:38;5.28;;;2.65;;
64601;SDS011;68371;42.630;23.192;2023-03-07T05:28:05;9.15;;;3.35;;
64601;SDS011;68371;42.630;23.192;2023-03-07T05:30:31;3.47;;;1.92;;
64601;SDS011;68371;42.630;23.192;2023-03-07T05:32:58;4.80;;;2.03;;
64601;SDS011;68371;42.630;23.192;2023-03-07T05:35:27;5.43;;;1.98;;
64601;SDS011;68371;42.630;23.192;2023-03-07T05:37:58;3.33;;;1.50;;
64601;SDS011;68371;42.630;23.192;2023-03-07T05:40:26;4.13;;;1.85;;
64601;SDS011;68371;42.630;23.192;2023-03-07T05:42:52;8.13;;;2.33;;
64601;SDS011;68371;42.630;23.192;2023-03-07T05:45:21;4.18;;;1.75;;
64601;SDS011;68371;42.630;23.192;2023-03-07T05:47:47;4.68;;;2.10;;
64601;SDS011;68371;42.630;23.192;2023-03-07T05:50:14;4.63;;;2.28;;
64601;SDS011;68371;42.630;23.192;2023-03-07T05:52:44;4.32;;;2.20;;
64601;SDS011;68371;42.630;23.192;2023-03-07T05:55:11;4.85;;;2.70;;
64601;SDS011;68371;42.630;23.192;2023-03-07T05:57:37;4.97;;;2.13;;
64601;SDS011;68371;42.630;23.192;2023-03-07T06:00:04;2.63;;;1.45;;
64601;SDS011;68371;42.630;23.192;2023-03-07T06:02:32;3.55;;;1.83;;
64601;SDS011;68371;42.630;23.192;2023-03-07T06:04:59;3.80;;;1.70;;
64601;SDS011;68371;42.630;23.192;2023-03-07T06:07:27;3.10;;;1.40;;
64601;SDS011;68371;42.630;23.192;2023-03-07T06:09:55;2.63;;;1.42;;
64601;SDS011;68371;42.630;23.192;2023-03-07T06:12:23;4.40;;;2.25;;
64601;SDS011;68371;42.630;23.192;2023-03-07T06:14:50;4.85;;;1.23;;
64601;SDS011;68371;42.630;23.192;2023-03-07T06:17:17;5.45;;;2.08;;
64601;SDS011;68371;42.630;23.192;2023-03-07T06:19:43;1.60;;;0.65;;
64601;SDS011;68371;42.630;23.192;2023-03-07T06:22:10;10.30;;;2.22;;
64601;SDS011;68371;42.630;23.192;2023-03-07T06:24:37;6.35;;;2.40;;
64601;SDS011;68371;42.630;23.192;2023-03-07T06:27:05;4.00;;;2.20;;
64601;SDS011;68371;42.630;23.192;2023-03-07T06:29:32;4.15;;;2.40;;
64601;SDS011;68371;42.630;23.192;2023-03-07T06:31:58;3.25;;;1.83;;
64601;SDS011;68371;42.630;23.192;2023-03-07T06:34:25;2.75;;;1.42;;
64601;SDS011;68371;42.630;23.192;2023-03-07T06:36:55;2.55;;;1.50;;
64601;SDS011;68371;42.630;23.192;2023-03-07T06:39:24;4.82;;;1.90;;
64601;SDS011;68371;42.630;23.192;2023-03-07T06:41:51;6.07;;;2.40;;
64601;SDS011;68371;42.630;23.192;2023-03-07T06:44:20;4.93;;;2.53;;
64601;SDS011;68371;42.630;23.192;2023-03-07T06:46:46;5.38;;;2.38;;
64601;SDS011;68371;42.630;23.192;2023-03-07T06:49:14;5.18;;;2.38;;
64601;SDS011;68371;42.630;23.192;2023-03-07T06:51:40;5.72;;;3.00;;
64601;SDS011;68371;42.630;23.192;2023-03-07T06:54:07;4.63;;;2.65;;
64601;SDS011;68371;42.630;23.192;2023-03-07T06:56:34;4.60;;;2.17;;
64601;SDS011;68371;42.630;23.192;2023-03-07T06:59:01;4.35;;;2.45;;
64601;SDS011;68371;42.630;23.192;2023-03-07T07:01:30;4.65;;;2.00;;
64601;SDS011;68371;42.630;23.192;2023-03-07T07:03:57;4.95;;;2.10;;
64601;SDS011;68371;42.630;23.192;2023-03-07T07:06:23;5.03;;;2.70;;
64601;SDS011;68371;42.630;23.192;2023-03-07T07:08:52;5.82;;;2.78;;
64601;SDS011;68371;42.630;23.192;2023-03-07T07:11:20;8.30;;;3.15;;
64601;SDS011;68371;42.630;23.192;2023-03-07T07:13:47;6.43;;;2.47;;
64601;SDS011;68371;42.630;23.192;2023-03-07T07:16:14;5.68;;;2.70;;
64601;SDS011;68371;42.630;23.192;2023-03-07T07:18:43;5.43;;;2.72;;
64601;SDS011;68371;42.630;23.192;2023-03-07T07:21:10;5.43;;;2.80;;
64601;SDS011;68371;42.630;23.192;2023-03-07T07:23:37;5.35;;;1.92;;
64601;SDS011;68371;42.630;23.192;2023-03-07T07:26:04;4.85;;;1.92;;
64601;SDS011;68371;42.630;23.192;2023-03-07T07:28:33;4.32;;;2.10;;
64601;SDS011;68371;42.630;23.192;2023-03-07T07:31:02;3.22;;;1.70;;
64601;SDS011;68371;42.630;23.192;2023-03-07T07:33:29;3.78;;;2.03;;
64601;SDS011;68371;42.630;23.192;2023-03-07T07:35:59;5.82;;;2.05;;
64601;SDS011;68371;42.630;23.192;2023-03-07T07:38:27;3.05;;;1.58;;
64601;SDS011;68371;42.630;23.192;2023-03-07T07:40:54;5.60;;;2.08;;
64601;SDS011;68371;42.630;23.192;2023-03-07T07:43:21;3.50;;;1.42;;
64601;SDS011;68371;42.630;23.192;2023-03-07T07:45:48;7.05;;;1.90;;
64601;SDS011;68371;42.630;23.192;2023-03-07T07:48:14;4.65;;;2.40;;
64601;SDS011;68371;42.630;23.192;2023-03-07T07:50:41;5.22;;;2.25;;
64601;SDS011;68371;42.630;23.192;2023-03-07T07:53:09;5.97;;;2.05;;
64601;SDS011;68371;42.630;23.192;2023-03-07T07:55:36;9.63;;;2.10;;
64601;SDS011;68371;42.630;23.192;2023-03-07T07:58:03;3.58;;;1.83;;
64601;SDS011;68371;42.630;23.192;2023-03-07T08:00:30;3.10;;;1.50;;
64601;SDS011;68371;42.630;23.192;2023-03-07T08:02:58;3.80;;;1.80;;
64601;SDS011;68371;42.630;23.192;2023-03-07T08:05:25;2.65;;;1.45;;
64601;SDS011;68371;42.630;23.192;2023-03-07T08:07:52;3.00;;;1.35;;
64601;SDS011;68371;42.630;23.192;2023-03-07T08:10:21;3.80;;;1.98;;
64601;SDS011;68371;42.630;23.192;2023-03-07T08:12:48;4.18;;;2.00;;
64601;SDS011;68371;42.630;23.192;2023-03-07T08:15:16;3.80;;;1.83;;
64601;SDS011;68371;42.630;23.192;2023-03-07T08:17:45;3.70;;;2.03;;
64601;SDS011;68371;42.630;23.192;2023-03-07T08:20:13;4.50;;;2.35;;
64601;SDS011;68371;42.630;23.192;2023-03-07T08:22:40;4.78;;;1.90;;
64601;SDS011;68371;42.630;23.192;2023-03-07T08:25:09;3.10;;;1.67;;
64601;SDS011;68371;42.630;23.192;2023-03-07T08:27:43;6.60;;;2.10;;
64601;SDS011;68371;42.630;23.192;2023-03-07T08:30:10;4.40;;;1.90;;
64601;SDS011;68371;42.630;23.192;2023-03-07T08:32:39;2.63;;;1.70;;
64601;SDS011;68371;42.630;23.192;2023-03-07T08:35:06;5.40;;;2.03;;
64601;SDS011;68371;42.630;23.192;2023-03-07T08:37:35;7.20;;;1.95;;
64601;SDS011;68371;42.630;23.192;2023-03-07T08:40:02;8.70;;;2.15;;
64601;SDS011;68371;42.630;23.192;2023-03-07T08:42:35;4.45;;;2.22;;
64601;SDS011;68371;42.630;23.192;2023-03-07T08:45:05;6.78;;;1.80;;
64601;SDS011;68371;42.630;23.192;2023-03-07T08:47:32;3.20;;;1.07;;
64601;SDS011;68371;42.630;23.192;2023-03-07T08:50:01;3.83;;;1.80;;
64601;SDS011;68371;42.630;23.192;2023-03-07T08:52:28;3.15;;;1.50;;
64601;SDS011;68371;42.630;23.192;2023-03-07T08:54:54;3.13;;;1.70;;
64601;SDS011;68371;42.630;23.192;2023-03-07T08:57:21;3.67;;;1.77;;
64601;SDS011;68371;42.630;23.192;2023-03-07T08:59:48;7.38;;;1.90;;
64601;SDS011;68371;42.630;23.192;2023-03-07T09:02:16;6.18;;;1.60;;
64601;SDS011;68371;42.630;23.192;2023-03-07T09:04:43;4.07;;;1.52;;
64601;SDS011;68371;42.630;23.192;2023-03-07T09:07:10;5.72;;;1.45;;
64601;SDS011;68371;42.630;23.192;2023-03-07T09:09:37;4.50;;;1.42;;
64601;SDS011;68371;42.630;23.192;2023-03-07T09:12:04;6.85;;;1.67;;
64601;SDS011;68371;42.630;23.192;2023-03-07T09:14:32;4.18;;;2.03;;
64601;SDS011;68371;42.630;23.192;2023-03-07T09:16:59;5.47;;;1.95;;
64601;SDS011;68371;42.630;23.192;2023-03-07T09:19:28;4.40;;;1.55;;
64601;SDS011;68371;42.630;23.192;2023-03-07T09:21:54;9.52;;;1.80;;
64601;SDS011;68371;42.630;23.192;2023-03-07T09:24:21;5.85;;;1.80;;
64601;SDS011;68371;42.630;23.192;2023-03-07T09:26:48;5.15;;;1.83;;
64601;SDS011;68371;42.630;23.192;2023-03-07T09:29:14;4.43;;;1.35;;
64601;SDS011;68371;42.630;23.192;2023-03-07T09:31:41;2.08;;;1.10;;
64601;SDS011;68371;42.630;23.192;2023-03-07T09:34:09;3.35;;;1.70;;
64601;SDS011;68371;42.630;23.192;2023-03-07T09:36:38;2.03;;;0.88;;
64601;SDS011;68371;42.630;23.192;2023-03-07T09:39:05;7.30;;;1.80;;
64601;SDS011;68371;42.630;23.192;2023-03-07T09:44:41;2.50;;;1.30;;
64601;SDS011;68371;42.630;23.192;2023-03-07T09:47:21;3.17;;;1.35;;
64601;SDS011;68371;42.630;23.192;2023-03-07T09:50:02;2.53;;;1.13;;
64601;SDS011;68371;42.630;23.192;2023-03-07T09:52:40;4.95;;;1.48;;
64601;SDS011;68371;42.630;23.192;2023-03-07T09:55:10;3.83;;;1.67;;
64601;SDS011;68371;42.630;23.192;2023-03-07T09:57:41;4.72;;;1.67;;
64601;SDS011;68371;42.630;23.192;2023-03-07T10:00:16;3.67;;;1.50;;
64601;SDS011;68371;42.630;23.192;2023-03-07T10:02:47;2.95;;;1.73;;
64601;SDS011;68371;42.630;23.192;2023-03-07T10:05:22;2.17;;;1.50;;
64601;SDS011;68371;42.630;23.192;2023-03-07T10:07:57;2.55;;;1.00;;
64601;SDS011;68371;42.630;23.192;2023-03-07T10:10:26;2.13;;;1.10;;
64601;SDS011;68371;42.630;23.192;2023-03-07T10:16:03;3.65;;;1.40;;
64601;SDS011;68371;42.630;23.192;2023-03-07T10:18:41;5.68;;;1.98;;
64601;SDS011;68371;42.630;23.192;2023-03-07T10:21:21;2.72;;;1.25;;
64601;SDS011;68371;42.630;23.192;2023-03-07T10:24:09;2.28;;;1.40;;
64601;SDS011;68371;42.630;23.192;2023-03-07T10:26:55;3.38;;;1.48;;
64601;SDS011;68371;42.630;23.192;2023-03-07T10:29:26;6.60;;;1.85;;
64601;SDS011;68371;42.630;23.192;2023-03-07T10:32:01;3.15;;;1.88;;
64601;SDS011;68371;42.630;23.192;2023-03-07T10:34:38;8.30;;;1.83;;
64601;SDS011;68371;42.630;23.192;2023-03-07T10:37:11;3.00;;;1.40;;
64601;SDS011;68371;42.630;23.192;2023-03-07T10:39:45;5.05;;;1.67;;
64601;SDS011;68371;42.630;23.192;2023-03-07T10:42:16;3.85;;;1.70;;
64601;SDS011;68371;42.630;23.192;2023-03-07T10:44:45;2.30;;;1.38;;
64601;SDS011;68371;42.630;23.192;2023-03-07T10:47:16;2.88;;;1.58;;
64601;SDS011;68371;42.630;23.192;2023-03-07T10:49:45;2.20;;;1.27;;
64601;SDS011;68371;42.630;23.192;2023-03-07T10:52:16;2.88;;;1.40;;
64601;SDS011;68371;42.630;23.192;2023-03-07T10:54:53;3.22;;;1.60;;
64601;SDS011;68371;42.630;23.192;2023-03-07T10:57:25;3.30;;;1.52;;
64601;SDS011;68371;42.630;23.192;2023-03-07T10:59:53;6.80;;;1.38;;
64601;SDS011;68371;42.630;23.192;2023-03-07T11:02:25;3.72;;;1.60;;
64601;SDS011;68371;42.630;23.192;2023-03-07T11:04:57;2.65;;;1.60;;
64601;SDS011;68371;42.630;23.192;2023-03-07T11:07:26;2.50;;;1.50;;
64601;SDS011;68371;42.630;23.192;2023-03-07T11:09:55;5.22;;;2.17;;
64601;SDS011;68371;42.630;23.192;2023-03-07T11:12:23;3.95;;;1.58;;
64601;SDS011;68371;42.630;23.192;2023-03-07T11:14:51;2.95;;;1.60;;
64601;SDS011;68371;42.630;23.192;2023-03-07T11:17:20;2.22;;;1.08;;
64601;SDS011;68371;42.630;23.192;2023-03-07T11:19:51;3.22;;;1.58;;
64601;SDS011;68371;42.630;23.192;2023-03-07T11:24:50;3.67;;;1.60;;
64601;SDS011;68371;42.630;23.192;2023-03-07T11:27:25;3.10;;;1.73;;
64601;SDS011;68371;42.630;23.192;2023-03-07T11:35:31;4.90;;;1.80;;
64601;SDS011;68371;42.630;23.192;2023-03-07T11:38:19;1.65;;;0.95;;
64601;SDS011;68371;42.630;23.192;2023-03-07T11:40:57;3.67;;;0.90;;
64601;SDS011;68371;42.630;23.192;2023-03-07T11:43:35;2.80;;;1.17;;
64601;SDS011;68371;42.630;23.192;2023-03-07T11:46:20;3.35;;;1.23;;
64601;SDS011;68371;42.630;23.192;2023-03-07T11:49:00;1.90;;;1.10;;
64601;SDS011;68371;42.630;23.192;2023-03-07T11:51:39;2.78;;;1.33;;
64601;SDS011;68371;42.630;23.192;2023-03-07T11:54:16;3.92;;;1.55;;
64601;SDS011;68371;42.630;23.192;2023-03-07T11:56:53;3.13;;;1.50;;
64601;SDS011;68371;42.630;23.192;2023-03-07T11:59:28;4.90;;;1.45;;
64601;SDS011;68371;42.630;23.192;2023-03-07T12:05:46;3.53;;;1.30;;
64601;SDS011;68371;42.630;23.192;2023-03-07T12:08:27;5.97;;;1.85;;
64601;SDS011;68371;42.630;23.192;2023-03-07T12:11:12;3.05;;;1.50;;
64601;SDS011;68371;42.630;23.192;2023-03-07T12:13:57;3.00;;;1.20;;
64601;SDS011;68371;42.630;23.192;2023-03-07T12:16:35;2.40;;;1.40;;
64601;SDS011;68371;42.630;23.192;2023-03-07T12:19:23;2.65;;;1.73;;
64601;SDS011;68371;42.630;23.192;2023-03-07T12:22:12;4.50;;;1.67;;
64601;SDS011;68371;42.630;23.192;2023-03-07T12:24:59;3.08;;;1.13;;
64601;SDS011;68371;42.630;23.192;2023-03-07T12:27:33;2.05;;;1.00;;
64601;SDS011;68371;42.630;23.192;2023-03-07T12:30:08;2.60;;;1.00;;
64601;SDS011;68371;42.630;23.192;2023-03-07T12:32:43;2.83;;;0.82;;
64601;SDS011;68371;42.630;23.192;2023-03-07T12:35:16;4.28;;;1.50;;
64601;SDS011;68371;42.630;23.192;2023-03-07T12:37:49;2.22;;;1.38;;
64601;SDS011;68371;42.630;23.192;2023-03-07T12:40:20;7.25;;;1.30;;
64601;SDS011;68371;42.630;23.192;2023-03-07T12:42:52;2.40;;;1.10;;
64601;SDS011;68371;42.630;23.192;2023-03-07T12:45:27;2.17;;;1.15;;
64601;SDS011;68371;42.630;23.192;2023-03-07T12:48:02;2.63;;;1.20;;
64601;SDS011;68371;42.630;23.192;2023-03-07T12:50:36;1.48;;;1.00;;
64601;SDS011;68371;42.630;23.192;2023-03-07T12:53:12;2.83;;;0.93;;
64601;SDS011;68371;42.630;23.192;2023-03-07T12:55:47;3.45;;;1.23;;
64601;SDS011;68371;42.630;23.192;2023-03-07T12:58:20;2.53;;;1.20;;
64601;SDS011;68371;42.630;23.192;2023-03-07T13:01:01;2.85;;;1.25;;
64601;SDS011;68371;42.630;23.192;2023-03-07T13:03:33;3.65;;;1.00;;
64601;SDS011;68371;42.630;23.192;2023-03-07T13:06:06;3.55;;;1.38;;
64601;SDS011;68371;42.630;23.192;2023-03-07T13:08:39;4.32;;;1.20;;
64601;SDS011;68371;42.630;23.192;2023-03-07T13:11:15;1.88;;;1.10;;
64601;SDS011;68371;42.630;23.192;2023-03-07T13:13:52;3.90;;;1.15;;
64601;SDS011;68371;42.630;23.192;2023-03-07T13:16:34;3.47;;;1.40;;
64601;SDS011;68371;42.630;23.192;2023-03-07T13:31:09;3.00;;;1.60;;
64601;SDS011;68371;42.630;23.192;2023-03-07T13:33:55;6.82;;;1.50;;
64601;SDS011;68371;42.630;23.192;2023-03-07T13:36:57;1.70;;;0.95;;
64601;SDS011;68371;42.630;23.192;2023-03-07T13:39:34;2.47;;;1.20;;
64601;SDS011;68371;42.630;23.192;2023-03-07T13:42:02;2.97;;;1.58;;
64601;SDS011;68371;42.630;23.192;2023-03-07T13:44:35;3.65;;;1.30;;
64601;SDS011;68371;42.630;23.192;2023-03-07T13:47:04;3.65;;;1.10;;
64601;SDS011;68371;42.630;23.192;2023-03-07T13:53:07;2.38;;;1.25;;
64601;SDS011;68371;42.630;23.192;2023-03-07T13:55:39;4.28;;;1.00;;
64601;SDS011;68371;42.630;23.192;2023-03-07T13:58:14;4.80;;;1.58;;
64601;SDS011;68371;42.630;23.192;2023-03-07T14:00:53;2.58;;;1.08;;
64601;SDS011;68371;42.630;23.192;2023-03-07T14:03:30;2.78;;;0.93;;
64601;SDS011;68371;42.630;23.192;2023-03-07T14:06:03;2.75;;;1.10;;
64601;SDS011;68371;42.630;23.192;2023-03-07T14:08:34;1.25;;;0.80;;
64601;SDS011;68371;42.630;23.192;2023-03-07T14:11:02;2.95;;;0.88;;
64601;SDS011;68371;42.630;23.192;2023-03-07T14:13:43;5.50;;;1.50;;
64601;SDS011;68371;42.630;23.192;2023-03-07T14:16:35;2.22;;;0.90;;
64601;SDS011;68371;42.630;23.192;2023-03-07T14:19:14;1.42;;;0.80;;
64601;SDS011;68371;42.630;23.192;2023-03-07T14:21:54;5.75;;;1.42;;
64601;SDS011;68371;42.630;23.192;2023-03-07T14:24:29;2.40;;;1.40;;
64601;SDS011;68371;42.630;23.192;2023-03-07T14:27:10;2.97;;;1.25;;
64601;SDS011;68371;42.630;23.192;2023-03-07T14:29:37;2.75;;;0.80;;
64601;SDS011;68371;42.630;23.192;2023-03-07T14:32:18;3.17;;;1.30;;
64601;SDS011;68371;42.630;23.192;2023-03-07T14:34:51;3.40;;;1.52;;
64601;SDS011;68371;42.630;23.192;2023-03-07T14:37:21;4.13;;;1.50;;
64601;SDS011;68371;42.630;23.192;2023-03-07T14:39:56;1.60;;;0.93;;
64601;SDS011;68371;42.630;23.192;2023-03-07T14:42:33;3.13;;;1.50;;
64601;SDS011;68371;42.630;23.192;2023-03-07T14:48:11;2.90;;;1.42;;
64601;SDS011;68371;42.630;23.192;2023-03-07T14:50:55;3.35;;;1.38;;
64601;SDS011;68371;42.630;23.192;2023-03-07T14:53:29;3.58;;;1.27;;
64601;SDS011;68371;42.630;23.192;2023-03-07T14:55:58;3.13;;;1.67;;
64601;SDS011;68371;42.630;23.192;2023-03-07T14:58:27;7.30;;;2.03;;
64601;SDS011;68371;42.630;23.192;2023-03-07T15:00:57;3.05;;;1.35;;
64601;SDS011;68371;42.630;23.192;2023-03-07T15:03:25;2.70;;;1.30;;
64601;SDS011;68371;42.630;23.192;2023-03-07T15:05:54;2.40;;;1.17;;
64601;SDS011;68371;42.630;23.192;2023-03-07T15:08:24;4.82;;;1.83;;
64601;SDS011;68371;42.630;23.192;2023-03-07T15:10:56;5.60;;;2.28;;
64601;SDS011;68371;42.630;23.192;2023-03-07T15:13:28;4.30;;;1.58;;
64601;SDS011;68371;42.630;23.192;2023-03-07T15:16:01;2.65;;;1.60;;
64601;SDS011;68371;42.630;23.192;2023-03-07T15:18:33;2.75;;;1.30;;
64601;SDS011;68371;42.630;23.192;2023-03-07T15:21:04;1.83;;;1.00;;
64601;SDS011;68371;42.630;23.192;2023-03-07T15:23:33;4.32;;;2.00;;
64601;SDS011;68371;42.630;23.192;2023-03-07T15:26:02;3.15;;;1.25;;
64601;SDS011;68371;42.630;23.192;2023-03-07T15:28:32;6.03;;;1.50;;
64601;SDS011;68371;42.630;23.192;2023-03-07T15:30:59;2.63;;;1.27;;
64601;SDS011;68371;42.630;23.192;2023-03-07T15:33:27;3.03;;;1.70;;
64601;SDS011;68371;42.630;23.192;2023-03-07T15:36:06;6.03;;;2.00;;